createdAt,value
2023-02-14T00:01:43.604Z,58.80
2023-02-14T00:04:12.856Z,58.84
2023-02-14T00:06:46.922Z,59.64
2023-02-14T00:09:19.559Z,59.27
2023-02-14T00:11:47.892Z,59.71
2023-02-14T00:14:34.902Z,59.88
2023-02-14T00:17:02.874Z,59.43
2023-02-14T00:19:34.769Z,59.56
2023-02-14T00:22:03.277Z,59.54
2023-02-14T00:24:33.362Z,59.45
2023-02-14T00:27:01.455Z,59.51
2023-02-14T00:29:31.236Z,60.11
2023-02-14T00:31:59.728Z,60.15
2023-02-14T00:34:28.006Z,59.54
2023-02-14T00:36:56.319Z,60.03
2023-02-14T00:39:25.392Z,60.06
2023-02-14T00:41:55.216Z,59.88
2023-02-14T00:44:25.540Z,61.02
2023-02-14T00:46:53.815Z,60.49
2023-02-14T00:49:24.565Z,60.41
2023-02-14T00:51:52.746Z,60.36
2023-02-14T00:54:21.548Z,60.62
2023-02-14T00:56:49.552Z,60.26
2023-02-14T00:59:19.246Z,60.29
2023-02-14T01:01:47.620Z,60.76
2023-02-14T01:04:15.647Z,60.86
2023-02-14T01:06:43.726Z,60.93
2023-02-14T01:09:12.183Z,60.52
2023-02-14T01:11:43.257Z,60.43
2023-02-14T01:14:11.599Z,60.48
2023-02-14T01:16:41.021Z,60.63
2023-02-14T01:19:10.115Z,60.66
2023-02-14T01:21:38.488Z,60.30
2023-02-14T01:24:08.790Z,61.12
2023-02-14T01:26:36.980Z,60.90
2023-02-14T01:29:06.311Z,60.85
2023-02-14T01:31:36.229Z,61.00
2023-02-14T01:34:06.029Z,60.87
2023-02-14T01:36:37.827Z,60.80
2023-02-14T01:39:08.355Z,60.85
2023-02-14T01:41:38.358Z,60.65
2023-02-14T01:44:09.776Z,60.54
2023-02-14T01:46:38.772Z,60.55
2023-02-14T01:49:12.847Z,60.90
2023-02-14T01:51:45.769Z,60.80
2023-02-14T01:54:15.897Z,60.58
2023-02-14T01:56:52.163Z,60.38
2023-02-14T01:59:23.421Z,60.53
2023-02-14T02:01:53.315Z,60.47
2023-02-14T02:04:27.186Z,60.56
2023-02-14T02:07:00.648Z,60.49
2023-02-14T02:09:34.190Z,60.25
2023-02-14T02:12:02.488Z,60.45
2023-02-14T02:14:31.619Z,60.38
2023-02-14T02:17:16.846Z,60.35
2023-02-14T02:20:04.117Z,60.91
2023-02-14T02:23:14.546Z,60.98
2023-02-14T02:26:10.382Z,61.08
2023-02-14T02:29:21.423Z,61.07
2023-02-14T02:32:19.787Z,61.07
2023-02-14T02:35:19.122Z,61.13
2023-02-14T02:38:01.386Z,61.22
2023-02-14T02:40:44.308Z,61.09
2023-02-14T02:43:23.538Z,60.95
2023-02-14T02:46:19.854Z,60.80
2023-02-14T02:48:56.023Z,60.75
2023-02-14T02:51:52.559Z,60.60
2023-02-14T02:54:30.028Z,60.76
2023-02-14T02:57:02.138Z,60.66
2023-02-14T02:59:33.080Z,60.72
2023-02-14T03:02:07.684Z,60.58
2023-02-14T03:04:53.150Z,60.65
2023-02-14T03:07:39.396Z,60.70
2023-02-14T03:10:13.340Z,60.68
2023-02-14T03:13:11.804Z,60.47
2023-02-14T03:15:52.872Z,60.58
2023-02-14T03:18:39.389Z,60.30
2023-02-14T03:21:18.950Z,60.34
2023-02-14T03:23:59.179Z,60.37
2023-02-14T03:26:34.840Z,60.46
2023-02-14T03:29:12.747Z,60.47
2023-02-14T03:31:52.311Z,60.51
2023-02-14T03:34:29.343Z,60.50
2023-02-14T03:37:02.121Z,60.49
2023-02-14T03:39:40.183Z,60.59
2023-02-14T03:42:14.032Z,60.79
2023-02-14T03:44:46.024Z,60.45
2023-02-14T03:47:17.880Z,60.63
2023-02-14T03:49:50.545Z,60.62
2023-02-14T03:52:21.387Z,60.49
2023-02-14T03:54:54.528Z,60.59
2023-02-14T03:57:26.058Z,60.79
2023-02-14T03:59:56.476Z,60.94
2023-02-14T04:02:31.515Z,60.94
2023-02-14T04:05:06.361Z,61.07
2023-02-14T04:07:45.698Z,60.91
2023-02-14T04:10:16.140Z,61.08
2023-02-14T04:12:45.327Z,61.12
2023-02-14T04:15:14.715Z,60.92
2023-02-14T04:18:00.360Z,60.90
2023-02-14T04:20:32.394Z,60.77
2023-02-14T04:23:02.377Z,60.87
2023-02-14T04:25:33.022Z,60.86
2023-02-14T04:28:01.386Z,60.78
2023-02-14T04:30:30.035Z,60.80
2023-02-14T04:32:58.743Z,60.76
2023-02-14T04:35:27.164Z,60.50
2023-02-14T04:37:56.059Z,60.55
2023-02-14T04:40:24.898Z,60.56
2023-02-14T04:42:59.917Z,60.55
2023-02-14T04:45:32.726Z,60.54
2023-02-14T04:48:05.802Z,60.46
2023-02-14T04:50:34.942Z,60.47
2023-02-14T04:53:03.647Z,60.56
2023-02-14T04:55:31.746Z,60.54
2023-02-14T04:58:01.650Z,60.71
2023-02-14T05:00:29.836Z,60.75
2023-02-14T05:02:57.905Z,60.83
2023-02-14T05:05:26.698Z,60.65
2023-02-14T05:07:54.991Z,60.53
2023-02-14T05:10:23.059Z,60.35
2023-02-14T05:12:51.289Z,60.45
2023-02-14T05:15:20.975Z,60.41
2023-02-14T05:17:48.965Z,60.28
2023-02-14T05:20:17.428Z,60.27
2023-02-14T05:22:45.479Z,60.38
2023-02-14T05:25:13.506Z,60.31
2023-02-14T05:27:41.883Z,60.55
2023-02-14T05:30:11.289Z,60.61
2023-02-14T05:32:40.780Z,60.68
2023-02-14T05:35:09.380Z,60.66
2023-02-14T05:37:37.370Z,60.68
2023-02-14T05:40:07.472Z,60.60
2023-02-14T05:42:35.874Z,60.71
2023-02-14T05:45:04.115Z,60.97
2023-02-14T05:47:32.197Z,61.15
2023-02-14T05:50:02.143Z,61.27
2023-02-14T05:52:30.306Z,61.44
2023-02-14T05:54:58.370Z,61.54
2023-02-14T05:57:26.778Z,61.59
2023-02-14T05:59:54.766Z,61.65
2023-02-14T06:02:22.881Z,61.65
2023-02-14T06:04:51.372Z,61.74
2023-02-14T06:07:20.738Z,61.88
2023-02-14T06:09:48.825Z,61.81
2023-02-14T06:12:17.283Z,61.92
2023-02-14T06:14:45.324Z,61.93
2023-02-14T06:17:13.425Z,62.05
2023-02-14T06:19:42.520Z,61.84
2023-02-14T06:22:11.015Z,61.49
2023-02-14T06:24:40.409Z,61.31
2023-02-14T06:27:08.714Z,61.26
2023-02-14T06:29:36.787Z,61.27
2023-02-14T06:32:06.848Z,61.37
2023-02-14T06:34:35.594Z,61.33
2023-02-14T06:37:03.679Z,61.15
2023-02-14T06:39:31.780Z,61.34
2023-02-14T06:42:01.505Z,61.20
2023-02-14T06:44:29.504Z,61.22
2023-02-14T06:46:57.569Z,61.13
2023-02-14T06:49:25.999Z,61.03
2023-02-14T06:51:54.052Z,60.96
2023-02-14T06:54:22.144Z,61.08
2023-02-14T06:56:50.619Z,60.93
2023-02-14T06:59:20.062Z,60.71
2023-02-14T07:01:48.160Z,60.81
2023-02-14T07:04:17.773Z,60.80
2023-02-14T07:06:46.284Z,60.85
2023-02-14T07:09:16.891Z,60.93
2023-02-14T07:11:45.563Z,61.03
2023-02-14T07:14:14.719Z,61.05
2023-02-14T07:16:44.091Z,60.80
2023-02-14T07:19:12.417Z,61.03
2023-02-14T07:21:40.474Z,60.86
2023-02-14T07:24:08.959Z,60.82
2023-02-14T07:26:37.174Z,60.96
2023-02-14T07:29:05.223Z,60.77
2023-02-14T07:31:33.410Z,60.57
2023-02-14T07:34:03.138Z,60.44
2023-02-14T07:36:31.321Z,60.67
2023-02-14T07:38:59.323Z,60.16
2023-02-14T07:41:27.618Z,60.32
2023-02-14T07:43:55.694Z,60.59
2023-02-14T07:46:23.679Z,60.74
2023-02-14T07:48:52.093Z,60.93
2023-02-14T07:51:21.557Z,60.59
2023-02-14T07:53:49.614Z,60.50
2023-02-14T07:56:17.967Z,60.63
2023-02-14T07:58:46.768Z,60.69
2023-02-14T08:01:14.797Z,60.28
2023-02-14T08:03:44.490Z,60.47
2023-02-14T08:06:12.990Z,59.93
2023-02-14T08:08:42.495Z,60.32
2023-02-14T08:11:10.861Z,60.30
2023-02-14T08:13:38.113Z,60.36
2023-02-14T08:16:06.779Z,60.42
2023-02-14T08:18:37.820Z,60.36
2023-02-14T08:21:07.755Z,60.16
2023-02-14T08:23:37.433Z,60.08
2023-02-14T08:26:07.138Z,60.22
2023-02-14T08:28:35.567Z,59.58
2023-02-14T08:31:04.929Z,59.99
2023-02-14T08:33:33.138Z,59.70
2023-02-14T08:36:01.546Z,59.53
2023-02-14T08:38:29.658Z,59.90
2023-02-14T08:41:01.532Z,59.82
2023-02-14T08:43:34.206Z,59.65
2023-02-14T08:46:02.988Z,59.72
2023-02-14T08:48:31.611Z,59.97
2023-02-14T08:50:59.941Z,59.81
2023-02-14T08:53:28.146Z,59.94
2023-02-14T08:55:56.403Z,59.73
2023-02-14T08:58:24.492Z,59.62
2023-02-14T09:00:55.704Z,59.67
2023-02-14T09:03:23.986Z,59.62
2023-02-14T09:05:52.047Z,59.35
2023-02-14T09:08:20.220Z,59.35
2023-02-14T09:10:48.577Z,59.41
2023-02-14T09:13:16.608Z,59.43
2023-02-14T09:15:44.685Z,59.17
2023-02-14T09:18:15.121Z,59.14
2023-02-14T09:20:44.349Z,59.13
2023-02-14T09:23:12.612Z,59.09
2023-02-14T09:25:41.117Z,59.01
2023-02-14T09:28:09.177Z,58.98
2023-02-14T09:30:37.772Z,59.04
2023-02-14T09:33:05.789Z,58.91
2023-02-14T09:35:52.620Z,58.90
2023-02-14T09:38:20.905Z,58.53
2023-02-14T09:40:50.537Z,58.78
2023-02-14T09:43:23.472Z,58.82
2023-02-14T09:45:56.285Z,58.45
2023-02-14T09:48:30.140Z,58.28
2023-02-14T09:51:04.132Z,58.34
2023-02-14T09:53:34.966Z,58.33
2023-02-14T09:56:10.224Z,58.04
2023-02-14T09:58:45.031Z,57.96
2023-02-14T10:01:18.601Z,57.90
2023-02-14T10:04:09.310Z,58.27
2023-02-14T10:06:49.004Z,57.18
2023-02-14T10:09:30.685Z,57.32
2023-02-14T10:12:01.748Z,57.45
2023-02-14T10:14:33.951Z,57.90
2023-02-14T10:17:08.380Z,57.83
2023-02-14T10:19:41.583Z,57.60
2023-02-14T10:22:15.591Z,57.38
2023-02-14T10:24:48.792Z,57.03
2023-02-14T10:27:30.284Z,57.51
2023-02-14T10:29:59.144Z,57.09
2023-02-14T10:32:36.482Z,56.94
2023-02-14T10:35:09.459Z,56.44
2023-02-14T10:37:53.220Z,56.73
2023-02-14T10:40:34.604Z,55.67
2023-02-14T10:43:11.632Z,55.94
2023-02-14T10:45:45.886Z,55.41
2023-02-14T10:48:24.533Z,56.18
2023-02-14T10:51:00.236Z,55.44
2023-02-14T10:53:37.920Z,55.37
2023-02-14T10:56:13.872Z,54.74
2023-02-14T10:58:43.663Z,55.38
2023-02-14T11:01:14.483Z,55.73
2023-02-14T11:03:53.572Z,55.49
2023-02-14T11:06:22.378Z,54.69
2023-02-14T11:08:51.984Z,55.82
2023-02-14T11:11:25.699Z,55.62
2023-02-14T11:13:54.285Z,55.43
2023-02-14T11:16:32.130Z,55.82
2023-02-14T11:19:11.023Z,54.60
2023-02-14T11:21:41.267Z,54.22
2023-02-14T11:24:21.266Z,54.47
2023-02-14T11:26:53.064Z,54.22
2023-02-14T11:29:29.989Z,55.24
2023-02-14T11:32:07.798Z,54.86
2023-02-14T11:34:40.213Z,55.22
2023-02-14T11:37:26.071Z,54.95
2023-02-14T11:39:58.393Z,53.34
2023-02-14T11:42:42.107Z,54.50
2023-02-14T11:45:28.306Z,52.21
2023-02-14T11:48:11.181Z,52.45
2023-02-14T11:50:40.469Z,51.63
2023-02-14T11:53:13.385Z,54.13
2023-02-14T11:55:49.062Z,53.49
2023-02-14T11:58:32.363Z,54.44
2023-02-14T12:01:02.217Z,52.47
2023-02-14T12:03:36.921Z,53.99
2023-02-14T12:06:06.005Z,54.40
2023-02-14T12:08:37.583Z,54.66
2023-02-14T12:11:20.163Z,54.61
2023-02-14T12:13:54.072Z,52.24
2023-02-14T12:16:29.731Z,53.70
2023-02-14T12:19:03.758Z,53.95
2023-02-14T12:21:48.106Z,54.06
2023-02-14T12:24:27.754Z,53.25
2023-02-14T12:27:06.165Z,52.42
2023-02-14T12:29:39.957Z,53.33
2023-02-14T12:32:18.512Z,53.12
2023-02-14T12:34:46.868Z,52.75
2023-02-14T12:37:21.068Z,53.82
2023-02-14T12:40:08.086Z,53.67
2023-02-14T12:43:01.627Z,52.66
2023-02-14T12:45:48.655Z,51.21
2023-02-14T12:48:30.008Z,52.78
2023-02-14T12:51:07.509Z,51.96
2023-02-14T12:53:49.026Z,53.18
2023-02-14T12:56:29.244Z,51.23
2023-02-14T12:59:07.948Z,53.18
2023-02-14T13:02:06.010Z,52.87
2023-02-14T13:04:46.706Z,51.76
2023-02-14T13:07:24.849Z,53.37
2023-02-14T13:10:00.897Z,53.18
2023-02-14T13:12:36.272Z,53.46
2023-02-14T13:15:25.741Z,53.56
2023-02-14T13:18:00.880Z,51.88
2023-02-14T13:20:40.065Z,53.13
2023-02-14T13:23:14.841Z,52.07
2023-02-14T13:25:49.914Z,51.99
2023-02-14T13:28:19.798Z,53.13
2023-02-14T13:30:49.244Z,53.57
2023-02-14T13:33:28.174Z,53.19
2023-02-14T13:36:01.024Z,53.26
2023-02-14T13:38:31.663Z,53.30
2023-02-14T13:41:03.579Z,53.65
2023-02-14T13:43:50.078Z,53.58
2023-02-14T13:46:22.208Z,52.85
2023-02-14T13:49:02.123Z,53.86
2023-02-14T13:51:48.268Z,52.15
2023-02-14T13:54:31.078Z,50.67
2023-02-14T13:57:00.861Z,52.00
2023-02-14T13:59:32.193Z,53.35
2023-02-14T14:02:33.827Z,53.81
2023-02-14T14:05:02.160Z,51.56
2023-02-14T14:07:31.347Z,53.90
2023-02-14T14:10:02.889Z,54.16
2023-02-14T14:12:47.568Z,52.81
2023-02-14T14:15:20.613Z,53.68
2023-02-14T14:18:29.800Z,54.11
2023-02-14T14:20:58.517Z,51.10
2023-02-14T14:23:32.070Z,54.05
2023-02-14T14:26:02.080Z,52.92
2023-02-14T14:28:34.257Z,54.14
2023-02-14T14:31:02.461Z,54.47
2023-02-14T14:33:33.669Z,54.58
2023-02-14T14:36:07.352Z,54.00
2023-02-14T14:38:48.024Z,53.59
2023-02-14T14:41:16.267Z,53.96
2023-02-14T14:43:45.002Z,53.55
2023-02-14T14:46:15.955Z,54.01
2023-02-14T14:48:49.571Z,54.55
2023-02-14T14:51:25.132Z,53.95
2023-02-14T14:53:57.169Z,53.92
2023-02-14T14:56:27.506Z,54.21
2023-02-14T14:58:56.387Z,55.28
2023-02-14T15:01:33.489Z,54.54
2023-02-14T15:04:26.243Z,54.99
2023-02-14T15:06:56.529Z,54.42
2023-02-14T15:09:32.028Z,55.16
2023-02-14T15:12:20.535Z,54.30
2023-02-14T15:14:54.688Z,54.75
2023-02-14T15:17:26.235Z,55.98
2023-02-14T15:19:59.215Z,55.25
2023-02-14T15:22:29.656Z,54.61
2023-02-14T15:24:59.587Z,55.07
2023-02-14T15:27:31.736Z,55.79
2023-02-14T15:30:02.277Z,55.66
2023-02-14T15:32:33.868Z,55.81
2023-02-14T15:35:05.986Z,55.72
2023-02-14T15:37:34.631Z,55.59
2023-02-14T15:40:06.161Z,55.91
2023-02-14T15:42:42.248Z,55.57
2023-02-14T15:45:19.351Z,55.29
2023-02-14T15:47:50.510Z,55.41
2023-02-14T15:50:24.268Z,55.66
2023-02-14T15:52:53.845Z,55.24
2023-02-14T15:55:26.523Z,55.82
2023-02-14T15:58:03.583Z,56.02
2023-02-14T16:00:34.657Z,56.26
2023-02-14T16:03:07.533Z,56.11
2023-02-14T16:05:36.944Z,56.30
2023-02-14T16:08:07.895Z,55.95
2023-02-14T16:10:38.189Z,56.16
2023-02-14T16:13:09.673Z,55.88
2023-02-14T16:15:42.115Z,55.92
2023-02-14T16:18:19.104Z,55.72
2023-02-14T16:20:51.213Z,56.38
2023-02-14T16:23:26.175Z,55.71
2023-02-14T16:25:57.237Z,56.36
2023-02-14T16:28:30.268Z,56.38
2023-02-14T16:31:00.797Z,56.13
2023-02-14T16:33:32.043Z,55.88
2023-02-14T16:36:06.482Z,56.25
2023-02-14T16:38:41.391Z,56.34
2023-02-14T16:41:16.355Z,56.52
2023-02-14T16:43:44.728Z,57.01
2023-02-14T16:46:14.199Z,56.63
2023-02-14T16:48:43.038Z,56.76
2023-02-14T16:51:13.855Z,56.98
2023-02-14T16:53:43.227Z,57.10
2023-02-14T16:56:18.002Z,57.35
2023-02-14T16:58:47.038Z,57.90
2023-02-14T17:01:16.071Z,57.88
2023-02-14T17:03:44.647Z,57.83
2023-02-14T17:06:20.015Z,58.21
2023-02-14T17:08:51.777Z,57.95
2023-02-14T17:11:20.775Z,57.09
2023-02-14T17:13:49.685Z,57.07
2023-02-14T17:16:18.574Z,57.46
2023-02-14T17:18:49.376Z,57.19
2023-02-14T17:21:22.863Z,56.76
2023-02-14T17:23:51.175Z,56.91
2023-02-14T17:26:19.952Z,57.09
2023-02-14T17:28:48.001Z,57.02
2023-02-14T17:31:16.250Z,56.90
2023-02-14T17:33:44.695Z,57.03
2023-02-14T17:36:14.736Z,57.08
2023-02-14T17:38:44.900Z,57.10
2023-02-14T17:41:15.292Z,56.89
2023-02-14T17:43:43.882Z,56.94
2023-02-14T17:46:14.205Z,56.93
2023-02-14T17:48:45.394Z,56.86
2023-02-14T17:51:16.209Z,56.83
2023-02-14T17:53:46.033Z,56.65
2023-02-14T17:56:15.459Z,56.67
2023-02-14T17:58:43.580Z,57.08
2023-02-14T18:01:13.257Z,57.29
2023-02-14T18:03:41.847Z,57.44
2023-02-14T18:06:12.028Z,57.41
2023-02-14T18:08:42.443Z,57.45
2023-02-14T18:11:14.011Z,57.55
2023-02-14T18:13:42.421Z,57.53
2023-02-14T18:16:12.436Z,57.60
2023-02-14T18:18:40.803Z,57.75
2023-02-14T18:21:10.825Z,57.61
2023-02-14T18:23:39.832Z,57.48
2023-02-14T18:26:11.975Z,57.69
2023-02-14T18:28:41.733Z,57.81
2023-02-14T18:31:12.027Z,57.58
2023-02-14T18:33:40.689Z,57.86
2023-02-14T18:36:12.075Z,57.76
2023-02-14T18:38:41.276Z,57.57
2023-02-14T18:41:11.975Z,57.67
2023-02-14T18:43:42.444Z,57.55
2023-02-14T18:46:12.264Z,57.71
2023-02-14T18:48:41.651Z,57.70
2023-02-14T18:51:10.962Z,57.73
2023-02-14T18:53:40.192Z,57.76
2023-02-14T18:56:11.658Z,57.77
2023-02-14T18:58:42.771Z,57.66
2023-02-14T19:01:11.918Z,57.46
2023-02-14T19:03:40.798Z,57.44
2023-02-14T19:06:10.103Z,57.29
2023-02-14T19:08:40.246Z,57.28
2023-02-14T19:11:11.636Z,57.13
2023-02-14T19:13:45.873Z,57.10
2023-02-14T19:16:16.508Z,57.34
2023-02-14T19:18:45.181Z,57.20
2023-02-14T19:21:14.276Z,57.33
2023-02-14T19:23:43.010Z,57.11
2023-02-14T19:26:13.008Z,57.05
2023-02-14T19:28:43.153Z,57.05
2023-02-14T19:31:12.294Z,56.99
2023-02-14T19:33:41.680Z,56.95
2023-02-14T19:36:13.792Z,56.94
2023-02-14T19:38:43.651Z,57.13
2023-02-14T19:41:16.676Z,57.36
2023-02-14T19:43:47.626Z,57.25
2023-02-14T19:46:17.107Z,57.17
2023-02-14T19:48:46.000Z,57.08
2023-02-14T19:51:17.210Z,57.03
2023-02-14T19:53:46.583Z,56.99
2023-02-14T19:56:19.997Z,56.90
2023-02-14T19:58:50.997Z,56.93
2023-02-14T20:01:25.821Z,56.86
2023-02-14T20:03:54.989Z,56.88
2023-02-14T20:06:24.309Z,56.78
2023-02-14T20:08:53.055Z,56.94
2023-02-14T20:11:30.284Z,57.02
2023-02-14T20:14:00.418Z,57.83
2023-02-14T20:16:30.569Z,58.21
2023-02-14T20:19:02.428Z,58.32
2023-02-14T20:21:30.703Z,57.80
2023-02-14T20:24:00.961Z,57.52
2023-02-14T20:26:29.464Z,57.86
2023-02-14T20:29:03.739Z,58.11
2023-02-14T20:31:32.991Z,58.26
2023-02-14T20:34:01.492Z,58.18
2023-02-14T20:36:29.957Z,57.88
2023-02-14T20:38:59.069Z,58.30
2023-02-14T20:41:28.783Z,58.70
2023-02-14T20:44:03.996Z,59.01
2023-02-14T20:46:35.074Z,58.86
2023-02-14T20:49:03.908Z,58.67
2023-02-14T20:51:32.264Z,58.42
2023-02-14T20:54:00.469Z,58.67
2023-02-14T20:56:28.528Z,58.52
2023-02-14T20:58:56.580Z,58.57
2023-02-14T21:01:25.683Z,58.71
2023-02-14T21:03:55.506Z,58.97
2023-02-14T21:06:28.582Z,59.11
2023-02-14T21:08:57.277Z,59.12
2023-02-14T21:11:26.775Z,59.41
2023-02-14T21:13:55.472Z,59.38
2023-02-14T21:16:24.791Z,59.57
2023-02-14T21:18:59.360Z,59.64
2023-02-14T21:21:32.643Z,59.91
2023-02-14T21:24:02.542Z,60.26
2023-02-14T21:26:31.038Z,60.46
2023-02-14T21:28:59.313Z,60.61
2023-02-14T21:31:27.504Z,60.59
2023-02-14T21:33:58.728Z,60.44
2023-02-14T21:36:28.889Z,59.98
2023-02-14T21:38:58.866Z,59.42
2023-02-14T21:41:28.807Z,59.19
2023-02-14T21:43:58.819Z,59.50
2023-02-14T21:46:29.342Z,59.60
2023-02-14T21:49:18.080Z,59.53
2023-02-14T21:51:46.987Z,59.86
2023-02-14T21:54:16.444Z,60.26
2023-02-14T21:56:44.938Z,60.01
2023-02-14T21:59:13.428Z,59.31
2023-02-14T22:01:43.531Z,58.85
2023-02-14T22:04:14.020Z,58.62
2023-02-14T22:06:43.580Z,58.84
2023-02-14T22:09:14.259Z,59.50
2023-02-14T22:11:42.786Z,59.82
2023-02-14T22:14:11.249Z,60.15
2023-02-14T22:16:39.617Z,60.15
2023-02-14T22:19:09.435Z,60.22
2023-02-14T22:21:38.942Z,60.63
2023-02-14T22:24:07.557Z,61.08
2023-02-14T22:26:38.790Z,60.80
2023-02-14T22:29:07.805Z,60.88
2023-02-14T22:31:38.898Z,60.59
2023-02-14T22:34:09.472Z,60.29
2023-02-14T22:36:39.406Z,60.10
2023-02-14T22:39:07.891Z,60.52
2023-02-14T22:41:37.941Z,60.77
2023-02-14T22:44:07.288Z,61.31
2023-02-14T22:46:37.818Z,61.21
2023-02-14T22:49:06.831Z,60.32
2023-02-14T22:51:36.616Z,59.65
2023-02-14T22:54:08.589Z,59.17
2023-02-14T22:56:39.100Z,58.78
2023-02-14T22:59:08.635Z,58.61
2023-02-14T23:01:37.258Z,58.89
2023-02-14T23:04:06.557Z,59.65
2023-02-14T23:06:36.354Z,59.13
2023-02-14T23:09:11.295Z,58.98
2023-02-14T23:11:41.126Z,59.74
2023-02-14T23:14:29.147Z,59.30
2023-02-14T23:17:20.484Z,58.92
2023-02-14T23:20:06.787Z,58.55
2023-02-14T23:22:37.515Z,58.42
2023-02-14T23:25:10.134Z,58.13
2023-02-14T23:27:40.916Z,58.02
2023-02-14T23:30:14.809Z,57.98
2023-02-14T23:32:43.251Z,57.89
2023-02-14T23:35:11.991Z,57.99
2023-02-14T23:37:40.057Z,58.61
2023-02-14T23:40:10.802Z,59.37
2023-02-14T23:42:39.382Z,59.76
2023-02-14T23:45:26.215Z,59.50
2023-02-14T23:47:54.496Z,58.93
2023-02-14T23:50:22.596Z,59.49
2023-02-14T23:52:50.746Z,60.08
2023-02-14T23:55:20.457Z,60.44
2023-02-14T23:57:48.439Z,60.73
